Terminal Aerodrome Forecast
Issued by NWS

Home | Current Version | Previous Version | Text Only | Print | Product List | Glossary On
Versions: 1 2 3 4 5 6 7 8 9 10 11 12 13 14 15 16 17 18 19
746
FTPA31 PHFO 110211 AAA
TAFHOG
TAF AMD
PHOG 110211Z 1102/1124 VRB06KT P6SM SCT030 BKN040
     FM111000 VRB06KT P6SM BKN250
     FM112100 22010KT P6SM SCT050
      AMD LTD TO VIS AND WIND 1104/1116=

USA.gov is the U.S. government's official web portal to all federal, state and local government web resources and services.